KHYX

Saginaw County H W Browne Airport

Saginaw, Michigan, USA
METAR KHYX 191515Z AUTO 00000KT 7SM BKN009 BKN013 22/20 A3003 RMK AO2
Observed Flight Rules
Aug-19 @ 15:15 UTC (22 minutes ago) Instrument Flight Rules
Visibility Clouds
7 miles
  • Broken at 900' AGL
  • Broken at 1,300' AGL
Temperatures Readings
Current 22°C / 72°F
Dewpoint 20°C / 68°F
Humidity 88%
Altimeter 30.03" Hg
Pressure 1017 hPa
Elevation 183
METAR KHYX 191515Z AUTO 00000KT 7SM BKN009 BKN013 22/20 A3003 RMK AO2
Observed Flight Rules
Aug-19 @ 15:15 UTC
(22 minutes ago)
IFR
Clouds
  • Broken at 900' AGL
  • Broken at 1,300' AGL
Temperature Dewpoint
22°C / 72°F 20°C / 68°F
Humidity Altimeter Pressure
88% 30.03" Hg 1017 hPa